Whiteside, Tennessee
Current Conditions -  °F | °C
As of 5:53 PM on Friday 19 Dec 2014 (Local Time) from KCHA Reporting Station
Broken Clouds Broken Clouds  
Wind Chill: 42°   Ceiling: 20000
Heat Index: 45°   Visibility: 10mi
Dew Point: 30°   Wind: 6mph
Humidity: 56%   Direction: 10°N
Pressure: 30.19"   Gusts: NA
Location:  34.99°N, 85.5°W
Report Text: KCHA 192353Z 01005KT 10SM BKN200 BKN250 07/M01 A3019 RMK AO2 SLP226 T00721011 10083 20072 53009
Loading
Personal Weather Stations






























Interactive Weather Map New forecast layout! Learn more

10-Day Weather Forecast

Advertisements
Track Severe Weather on mobile